Time;durP1;ratioP1;P1;durP2;ratioP2;P2;SDS_P1;SDS_P2;PMS_P1;PMS_P2;Temp;Humidity;BMP_temperature;BMP_pressure;BME280_temperature;BME280_humidity;BME280_pressure;Samples;Min_cycle;Max_cycle;Signal;HPM_P1;HPM_P2
2023/10/16 00:00:40;;;;;;;4.30;0.82;;;8.40;99.90;;;;;;5054427;28;20056;-73
2023/10/16 00:03:06;;;;;;;3.85;0.85;;;8.90;99.90;;;;;;5055257;28;20142;-73
2023/10/16 00:05:39;;;;;;;;;;;8.40;99.90;;;;;;5055397;28;20080;-72
2023/10/16 00:08:06;;;;;;;3.95;1.00;;;8.40;99.90;;;;;;5054051;28;19921;-72
2023/10/16 00:10:35;;;;;;;3.97;0.90;;;8.50;99.90;;;;;;5036886;28;20492;-72
2023/10/16 00:13:04;;;;;;;7.38;1.30;;;8.60;99.90;;;;;;5054391;28;20048;-72
2023/10/16 00:15:49;;;;;;;5.95;1.00;;;8.60;99.90;;;;;;5054680;28;20041;-72
2023/10/16 00:18:18;;;;;;;5.68;1.00;;;8.70;99.90;;;;;;5037425;28;20078;-72
2023/10/16 00:20:47;;;;;;;4.45;0.90;;;8.70;99.90;;;;;;5036278;28;20119;-72
2023/10/16 00:23:12;;;;;;;;;;;8.70;99.90;;;;;;5055034;28;20480;-72
2023/10/16 00:25:43;;;;;;;4.85;1.00;;;8.70;99.90;;;;;;5037261;28;19920;-72
2023/10/16 00:28:10;;;;;;;3.70;0.77;;;8.70;99.90;;;;;;5053745;28;20077;-72
2023/10/16 00:30:38;;;;;;;6.47;1.10;;;9.00;99.90;;;;;;5037191;28;20095;-72
2023/10/16 00:33:06;;;;;;;5.90;1.00;;;8.90;99.90;;;;;;5053620;28;20044;-72
2023/10/16 00:35:32;;;;;;;6.30;0.98;;;8.70;99.90;;;;;;5053541;28;20049;-72
2023/10/16 00:37:58;;;;;;;4.90;0.80;;;8.70;99.90;;;;;;5036416;28;20098;-72
2023/10/16 00:40:33;;;;;;;9.63;1.35;;;9.10;99.90;;;;;;5054581;28;20049;-72
2023/10/16 00:43:12;;;;;;;2.63;1.23;;;8.70;99.90;;;;;;5035756;28;20045;-72
2023/10/16 00:45:59;;;;;;;3.70;0.73;;;8.60;99.90;;;;;;5036698;28;20053;-72
2023/10/16 00:48:25;;;;;;;6.15;1.00;;;8.60;99.90;;;;;;5053322;28;20091;-72
2023/10/16 00:50:51;;;;;;;6.45;1.10;;;8.80;99.90;;;;;;5054144;28;20206;-72
2023/10/16 00:53:22;;;;;;;4.88;1.05;;;8.50;99.90;;;;;;5054319;28;20488;-72
2023/10/16 00:55:49;;;;;;;3.42;0.90;;;9.00;99.90;;;;;;5052775;28;20044;-72
2023/10/16 00:58:18;;;;;;;5.22;1.10;;;8.90;99.90;;;;;;5035511;28;20080;-72
2023/10/16 01:00:45;;;;;;;7.88;1.02;;;8.40;99.90;;;;;;5053841;28;20094;-73
2023/10/16 01:03:20;;;;;;;5.10;0.90;;;8.80;99.90;;;;;;5035318;28;20076;-72
2023/10/16 01:05:50;;;;;;;5.43;0.90;;;8.40;99.90;;;;;;5054344;28;20045;-73
2023/10/16 01:08:17;;;;;;;6.38;0.90;;;8.60;99.90;;;;;;5035786;28;20523;-72
2023/10/16 01:10:48;;;;;;;5.70;0.80;;;8.50;99.90;;;;;;5053246;28;20040;-72
2023/10/16 01:13:16;;;;;;;4.38;0.93;;;8.50;99.90;;;;;;5053643;28;20048;-73
2023/10/16 01:15:50;;;;;;;3.70;1.23;;;8.20;99.90;;;;;;5053419;28;20084;-73
2023/10/16 01:18:17;;;;;;;5.05;1.10;;;8.20;99.90;;;;;;5053467;28;20056;-72
2023/10/16 01:20:55;;;;;;;3.60;0.90;;;8.20;99.90;;;;;;5053846;28;20049;-73
2023/10/16 01:23:22;;;;;;;4.25;0.70;;;8.20;99.90;;;;;;5053372;28;20087;-73
2023/10/16 01:25:49;;;;;;;6.15;0.90;;;8.20;99.90;;;;;;5052640;28;20049;-72
2023/10/16 01:28:18;;;;;;;2.05;0.55;;;8.30;99.90;;;;;;5053366;28;20053;-72
2023/10/16 01:30:47;;;;;;;4.45;0.63;;;8.10;99.90;;;;;;5052781;28;20133;-72
2023/10/16 01:33:16;;;;;;;3.38;0.80;;;8.00;99.90;;;;;;5053519;28;20578;-73
2023/10/16 01:35:43;;;;;;;2.38;0.80;;;8.30;99.90;;;;;;5053545;28;20049;-72
2023/10/16 01:38:15;;;;;;;4.25;0.80;;;7.90;99.90;;;;;;5052126;28;20044;-73
2023/10/16 01:40:47;;;;;;;4.72;0.80;;;7.90;99.90;;;;;;5035604;28;20068;-73
2023/10/16 01:43:16;;;;;;;3.42;0.90;;;7.80;99.90;;;;;;5053222;28;20044;-72
2023/10/16 01:45:49;;;;;;;3.25;0.90;;;7.70;99.90;;;;;;5034173;28;20059;-72
2023/10/16 01:48:21;;;;;;;4.75;0.73;;;7.70;99.90;;;;;;5035010;28;20061;-72
2023/10/16 01:50:50;;;;;;;3.03;0.70;;;7.90;99.90;;;;;;5052925;28;20060;-72
2023/10/16 01:53:21;;;;;;;2.75;0.80;;;7.70;99.90;;;;;;5035070;28;20547;-72
2023/10/16 01:55:56;;;;;;;4.55;0.80;;;7.70;99.90;;;;;;5053079;28;20052;-72
2023/10/16 01:58:30;;;;;;;6.53;1.17;;;7.80;99.90;;;;;;5052971;28;20102;-72
2023/10/16 02:00:56;;;;;;;4.35;0.93;;;7.80;99.90;;;;;;5034493;28;20555;-72
2023/10/16 02:03:25;;;;;;;6.65;1.00;;;7.90;99.90;;;;;;5035166;28;20165;-72
2023/10/16 02:05:51;;;;;;;5.10;0.90;;;9.10;99.90;;;;;;5051977;28;20055;-72
2023/10/16 02:08:17;;;;;;;3.40;0.80;;;8.00;99.90;;;;;;5035068;28;20131;-72
2023/10/16 02:10:42;;;;;;;2.35;0.65;;;8.30;99.90;;;;;;5052883;28;20049;-72
2023/10/16 02:13:09;;;;;;;;;;;8.00;99.90;;;;;;5034326;28;20445;-72
2023/10/16 02:15:36;;;;;;;4.32;0.70;;;8.00;99.90;;;;;;5052941;28;19924;-72
2023/10/16 02:18:05;;;;;;;6.80;1.10;;;8.00;99.90;;;;;;5034745;28;20067;-72
2023/10/16 02:20:36;;;;;;;6.88;1.05;;;8.00;99.90;;;;;;5033469;28;20041;-72
2023/10/16 02:23:03;;;;;;;4.88;1.02;;;8.10;99.90;;;;;;5052368;28;20459;-72
2023/10/16 02:25:29;;;;;;;5.95;1.23;;;8.20;99.90;;;;;;5052767;28;20032;-72
2023/10/16 02:27:54;;;;;;;2.53;0.85;;;8.20;99.90;;;;;;5051749;28;20456;-72
2023/10/16 02:32:53;;;;;;;4.30;0.93;;;8.40;99.90;;;;;;5052128;28;20045;-72
2023/10/16 02:35:22;;;;;;;4.28;1.10;;;8.70;99.90;;;;;;5052168;28;20404;-72
2023/10/16 02:37:53;;;;;;;5.15;1.13;;;8.40;99.90;;;;;;5051991;28;20473;-72
2023/10/16 02:40:25;;;;;;;4.55;0.80;;;8.50;99.90;;;;;;5034446;28;20053;-72
2023/10/16 02:43:37;;;;;;;3.28;0.65;;;8.50;99.90;;;;;;5033748;28;20037;-72
2023/10/16 02:45:47;;;;;;;3.85;0.80;;;8.60;99.90;;;;;;5040714;28;20131;-72
2023/10/16 02:48:16;;;;;;;1.63;0.45;;;8.60;99.90;;;;;;5051796;28;20049;-72
2023/10/16 02:50:56;;;;;;;3.72;0.65;;;8.60;99.90;;;;;;5052540;28;20074;-72
2023/10/16 02:53:33;;;;;;;2.60;0.70;;;8.60;99.90;;;;;;5052158;28;20049;-72
2023/10/16 02:58:46;;;;;;;2.30;0.70;;;8.60;99.90;;;;;;5052505;28;20076;-72
2023/10/16 03:01:18;;;;;;;5.93;0.80;;;8.60;99.90;;;;;;5051965;28;20041;-72
2023/10/16 03:03:53;;;;;;;6.75;0.80;;;8.70;99.90;;;;;;5051755;28;20041;-72
2023/10/16 03:06:18;;;;;;;5.40;0.80;;;8.70;99.90;;;;;;5034682;28;20408;-72
2023/10/16 03:08:50;;;;;;;3.10;0.60;;;8.60;99.90;;;;;;5033720;28;20045;-72
2023/10/16 03:11:17;;;;;;;3.75;0.75;;;8.80;99.90;;;;;;5034135;28;20484;-72
2023/10/16 03:13:43;;;;;;;4.18;0.70;;;8.50;99.90;;;;;;5052327;28;20395;-72
2023/10/16 03:16:16;;;;;;;2.97;0.70;;;8.60;99.90;;;;;;5033764;28;20516;-72
2023/10/16 03:18:43;;;;;;;3.88;0.80;;;8.60;99.90;;;;;;5052635;28;20049;-72
2023/10/16 03:23:46;;;;;;;3.05;0.70;;;8.60;99.90;;;;;;5051225;28;20041;-72
2023/10/16 03:28:47;;;;;;;6.82;0.77;;;8.70;99.90;;;;;;5051406;28;20439;-73
2023/10/16 03:31:13;;;;;;;1.98;0.70;;;8.80;99.90;;;;;;5034076;28;20049;-73
2023/10/16 03:33:38;;;;;;;5.43;0.90;;;8.70;99.90;;;;;;5037829;28;20426;-73
2023/10/16 03:36:04;;;;;;;2.40;0.60;;;9.00;99.90;;;;;;5054984;28;20089;-73
2023/10/16 03:38:37;;;;;;;5.00;0.68;;;8.80;99.90;;;;;;5054998;28;20049;-72
2023/10/16 03:43:48;;;;;;;3.03;0.90;;;8.80;99.90;;;;;;5054719;28;20869;-72
2023/10/16 03:46:14;;;;;;;4.30;0.75;;;8.80;99.90;;;;;;5036633;28;20052;-72
2023/10/16 03:48:40;;;;;;;2.70;0.70;;;8.80;99.90;;;;;;5055033;28;20428;-72
2023/10/16 03:51:11;;;;;;;3.65;0.80;;;8.80;99.90;;;;;;5037155;28;20049;-71
2023/10/16 03:53:37;;;;;;;3.42;1.00;;;8.70;99.90;;;;;;5037495;28;20044;-71
2023/10/16 03:56:04;;;;;;;3.22;0.75;;;8.70;99.90;;;;;;5055072;28;20087;-72
2023/10/16 03:58:35;;;;;;;2.50;0.88;;;8.70;99.90;;;;;;5054156;28;20449;-72
2023/10/16 04:01:07;;;;;;;3.15;0.70;;;8.70;99.90;;;;;;5055125;28;20275;-72
2023/10/16 04:06:21;;;;;;;3.63;1.00;;;8.70;99.90;;;;;;5054305;28;20045;-71
2023/10/16 04:08:50;;;;;;;3.00;0.80;;;8.70;99.90;;;;;;5055148;28;20059;-72
2023/10/16 04:11:17;;;;;;;3.45;0.60;;;8.60;99.90;;;;;;5055097;28;20037;-72
2023/10/16 04:13:49;;;;;;;10.05;1.10;;;8.40;99.90;;;;;;5054501;28;20128;-72
2023/10/16 04:17:06;;;;;;;2.92;0.82;;;8.40;99.90;;;;;;5037624;28;20046;-71
2023/10/16 04:21:43;;;;;;;3.47;1.20;;;8.30;99.90;;;;;;5054643;28;20071;-71
2023/10/16 04:29:25;;;;;;;4.90;1.02;;;8.10;99.90;;;;;;5054838;28;20056;-72
2023/10/16 04:34:32;;;;;;;3.15;1.00;;;7.90;99.90;;;;;;5036274;28;20377;-72
2023/10/16 05:00:57;;;;;;;5.43;1.33;;;8.10;99.90;;;;;;5044250;28;20056;-81
2023/10/16 05:13:17;;;;;;;4.60;1.00;;;8.40;99.90;;;;;;5041558;28;20061;-73
2023/10/16 05:15:20;;;;;;;3.05;0.90;;;8.40;99.90;;;;;;5053418;28;20056;-75
2023/10/16 05:20:34;;;;;;;4.00;1.00;;;8.50;99.90;;;;;;5033509;28;20053;-74
2023/10/16 06:14:57;;;;;;;9.43;1.48;;;8.90;99.90;;;;;;5032212;28;20041;-72
2023/10/16 06:17:23;;;;;;;6.57;1.85;;;9.00;99.90;;;;;;5032720;28;20067;-75
2023/10/16 06:19:51;;;;;;;6.95;1.30;;;9.90;99.90;;;;;;5049433;28;20041;-73
2023/10/16 06:22:17;;;;;;;8.05;1.60;;;10.00;99.90;;;;;;5056389;28;20408;-71
2023/10/16 06:24:47;;;;;;;6.82;1.10;;;9.10;99.90;;;;;;5052339;28;20044;-71
2023/10/16 06:27:18;;;;;;;4.95;1.70;;;9.20;99.90;;;;;;5034247;28;20099;-71
2023/10/16 06:29:51;;;;;;;4.30;1.33;;;9.00;99.90;;;;;;5033421;28;20049;-72
2023/10/16 06:32:26;;;;;;;5.95;1.42;;;9.00;99.90;;;;;;5052356;28;20197;-71
2023/10/16 06:34:57;;;;;;;7.57;1.35;;;9.10;99.90;;;;;;5033318;28;20076;-72
2023/10/16 06:37:23;;;;;;;8.50;1.52;;;9.10;99.90;;;;;;5034781;28;20146;-73
2023/10/16 06:39:54;;;;;;;7.10;1.67;;;9.10;99.90;;;;;;5035032;28;20068;-73
2023/10/16 06:42:23;;;;;;;10.80;1.55;;;9.10;99.90;;;;;;5052010;28;20400;-69
2023/10/16 06:44:50;;;;;;;5.43;1.45;;;9.20;99.90;;;;;;5033456;28;20048;-70
2023/10/16 06:47:23;;;;;;;6.57;1.40;;;9.20;99.90;;;;;;5035683;28;20052;-71
2023/10/16 06:49:50;;;;;;;5.30;1.20;;;9.20;99.90;;;;;;5033398;28;20140;-72
2023/10/16 06:52:17;;;;;;;6.50;1.48;;;9.30;99.90;;;;;;5064308;28;20132;-72
2023/10/16 06:54:44;;;;;;;5.88;1.08;;;9.20;99.90;;;;;;5029506;28;20090;-70
2023/10/16 06:57:13;;;;;;;5.47;1.60;;;9.50;99.90;;;;;;5033730;28;20103;-70
2023/10/16 06:59:39;;;;;;;6.72;1.40;;;9.20;99.90;;;;;;5052052;28;20435;-71
2023/10/16 07:02:08;;;;;;;9.43;1.23;;;9.20;99.90;;;;;;5051381;28;20076;-71
2023/10/16 07:04:38;;;;;;;5.97;1.30;;;9.20;99.90;;;;;;5052194;28;20090;-71
2023/10/16 07:07:14;;;;;;;5.85;1.23;;;9.20;99.90;;;;;;5035900;28;20122;-71
2023/10/16 07:09:47;;;;;;;4.03;1.30;;;9.30;99.90;;;;;;5037875;28;20085;-73
2023/10/16 07:12:19;;;;;;;5.82;1.10;;;9.30;99.90;;;;;;5056334;28;20041;-72
2023/10/16 07:15:24;;;;;;;6.13;1.10;;;9.30;99.90;;;;;;5054421;28;20052;-71
2023/10/16 07:17:40;;;;;;;5.72;1.30;;;9.40;99.90;;;;;;5057483;28;20484;-71
2023/10/16 07:20:17;;;;;;;6.78;1.50;;;9.80;99.90;;;;;;5038724;28;20098;-69
2023/10/16 07:22:43;;;;;;;8.07;1.27;;;9.60;99.90;;;;;;5036813;28;20041;-71
2023/10/16 07:25:23;;;;;;;5.97;1.48;;;9.60;99.90;;;;;;5036633;28;20141;-70
2023/10/16 07:27:49;;;;;;;5.80;1.30;;;9.70;99.90;;;;;;5028464;28;20465;-71
2023/10/16 07:30:27;;;;;;;6.18;1.48;;;9.80;99.90;;;;;;5032938;28;20091;-72
2023/10/16 07:32:54;;;;;;;8.30;1.50;;;9.90;99.90;;;;;;5017996;28;20389;-72
2023/10/16 07:35:21;;;;;;;5.00;1.25;;;10.00;99.90;;;;;;5025379;28;20080;-72
2023/10/16 07:37:53;;;;;;;5.30;1.20;;;10.20;99.90;;;;;;5037473;28;20087;-72
2023/10/16 07:40:20;;;;;;;8.27;1.38;;;10.20;99.90;;;;;;5055740;28;20041;-72
2023/10/16 07:42:47;;;;;;;4.65;1.40;;;10.30;99.90;;;;;;5037739;28;20053;-73
2023/10/16 07:45:13;;;;;;;5.00;1.10;;;10.40;99.90;;;;;;5054972;28;20094;-72
2023/10/16 07:47:39;;;;;;;5.20;1.20;;;10.70;99.90;;;;;;5037479;28;20524;-71
2023/10/16 07:50:07;;;;;;;7.45;1.30;;;10.90;99.90;;;;;;5037115;28;20504;-72
2023/10/16 07:52:36;;;;;;;5.57;1.10;;;11.20;99.90;;;;;;5054897;28;20123;-72
2023/10/16 07:55:03;;;;;;;5.80;1.23;;;11.90;99.90;;;;;;5055048;28;20064;-72
2023/10/16 07:57:32;;;;;;;5.13;1.10;;;11.50;99.90;;;;;;5036749;28;20087;-72
2023/10/16 07:59:58;;;;;;;4.00;1.10;;;11.60;99.90;;;;;;5037170;28;20127;-72
2023/10/16 08:02:24;;;;;;;5.45;1.20;;;11.80;99.90;;;;;;5055348;28;20117;-70
2023/10/16 08:04:52;;;;;;;5.10;1.20;;;11.90;99.90;;;;;;5036517;28;20484;-69
2023/10/16 08:07:18;;;;;;;6.22;1.48;;;12.10;99.90;;;;;;5037430;28;20045;-70
2023/10/16 08:10:28;;;;;;;5.45;1.38;;;12.60;99.90;;;;;;5055000;28;20052;-69
2023/10/16 08:12:47;;;;;;;7.00;1.40;;;12.00;99.90;;;;;;5054286;28;20045;-69
2023/10/16 08:15:15;;;;;;;5.50;1.27;;;12.10;99.90;;;;;;5054958;28;20056;-70
2023/10/16 08:17:44;;;;;;;7.00;1.30;;;12.10;99.90;;;;;;5035578;28;20151;-69
2023/10/16 08:20:17;;;;;;;5.63;1.30;;;12.00;99.90;;;;;;5036103;28;20052;-72
2023/10/16 08:22:44;;;;;;;9.98;1.80;;;12.00;99.90;;;;;;5054835;28;20040;-72
2023/10/16 08:25:20;;;;;;;6.43;1.45;;;12.00;99.90;;;;;;5036343;28;20139;-70
2023/10/16 08:27:49;;;;;;;4.47;1.52;;;12.10;99.90;;;;;;5036422;28;20056;-68
2023/10/16 08:30:18;;;;;;;2.63;1.10;;;12.20;99.90;;;;;;5037066;28;20127;-69
2023/10/16 08:35:17;;;;;;;7.28;1.45;;;12.20;99.90;;;;;;5054008;28;20123;-71
2023/10/16 08:37:43;;;;;;;6.70;1.30;;;12.20;99.90;;;;;;5054671;28;20392;-71
2023/10/16 08:40:23;;;;;;;4.03;1.20;;;12.10;99.90;;;;;;5035904;28;20064;-71
2023/10/16 08:43:07;;;;;;;5.30;1.20;;;11.90;99.90;;;;;;5016642;28;20073;-71
2023/10/16 08:45:33;;;;;;;6.53;1.40;;;11.80;99.90;;;;;;5016433;28;20075;-72
2023/10/16 08:48:06;;;;;;;5.60;1.17;;;11.60;99.90;;;;;;5033341;28;20503;-71
2023/10/16 08:50:43;;;;;;;4.40;1.10;;;11.50;99.90;;;;;;5016779;28;20049;-72
2023/10/16 08:53:31;;;;;;;5.53;1.10;;;11.40;99.90;;;;;;5034786;28;20072;-71
2023/10/16 08:56:08;;;;;;;6.40;1.23;;;11.30;99.90;;;;;;5019858;28;20049;-71
2023/10/16 08:58:34;;;;;;;;;;;11.30;99.90;;;;;;5017167;28;20428;-71
2023/10/16 09:01:01;;;;;;;7.55;1.30;;;11.80;99.90;;;;;;5033177;28;19968;-71
2023/10/16 09:03:29;;;;;;;4.00;1.20;;;11.50;99.90;;;;;;5016310;28;20156;-72
2023/10/16 09:05:55;;;;;;;5.45;1.30;;;11.50;99.90;;;;;;5030564;28;20055;-72
2023/10/16 09:08:20;;;;;;;6.25;1.05;;;11.50;99.90;;;;;;5036461;28;20037;-72
2023/10/16 09:10:48;;;;;;;4.97;1.02;;;11.50;99.90;;;;;;5035897;28;20052;-72
2023/10/16 09:13:16;;;;;;;5.03;1.20;;;11.50;99.90;;;;;;5054061;28;20052;-72
2023/10/16 09:15:48;;;;;;;6.95;1.45;;;11.60;99.90;;;;;;5038588;28;20052;-74
2023/10/16 09:18:21;;;;;;;6.55;1.10;;;11.60;99.90;;;;;;5053898;28;20381;-73
2023/10/16 09:20:49;;;;;;;4.90;1.10;;;11.70;99.90;;;;;;5015864;28;20053;-72
2023/10/16 09:23:15;;;;;;;8.02;1.20;;;11.80;99.90;;;;;;5015816;28;20057;-72
2023/10/16 09:25:45;;;;;;;5.72;1.23;;;12.00;99.90;;;;;;5034058;28;20075;-72
2023/10/16 09:28:18;;;;;;;5.97;1.50;;;12.40;99.90;;;;;;5017703;28;20107;-74
2023/10/16 09:30:48;;;;;;;9.48;3.63;;;12.50;99.90;;;;;;5027702;28;20501;-71
2023/10/16 09:33:15;;;;;;;6.88;3.10;;;12.80;99.90;;;;;;5031988;28;20500;-71
2023/10/16 09:35:44;;;;;;;5.72;1.38;;;13.30;99.90;;;;;;5033219;28;20120;-71
2023/10/16 09:38:18;;;;;;;3.78;1.10;;;14.30;99.90;;;;;;5024551;28;20125;-73
2023/10/16 09:41:37;;;;;;;5.97;1.25;;;15.50;99.90;;;;;;5035290;28;20079;-74
2023/10/16 09:49:15;;;;;;;2.95;0.95;;;17.30;99.90;;;;;;5052966;28;20136;-73
2023/10/16 09:51:46;;;;;;;5.95;1.30;;;17.60;99.90;;;;;;5035011;28;20484;-72
2023/10/16 09:54:13;;;;;;;6.70;1.05;;;17.50;99.90;;;;;;5034659;28;20496;-71
2023/10/16 09:56:48;;;;;;;4.40;0.90;;;17.60;99.90;;;;;;5035405;28;20071;-73
2023/10/16 09:59:32;;;;;;;7.25;1.35;;;17.20;99.90;;;;;;5052739;28;20091;-72
2023/10/16 10:02:05;;;;;;;5.43;1.30;;;16.60;99.90;;;;;;5034480;28;20041;-73
2023/10/16 10:04:32;;;;;;;4.43;1.00;;;16.10;99.90;;;;;;5034604;28;20056;-73
2023/10/16 10:07:02;;;;;;;6.13;1.35;;;15.50;99.90;;;;;;5054574;28;20052;-74
2023/10/16 10:09:44;;;;;;;4.28;1.02;;;15.20;99.90;;;;;;5034952;28;20107;-73
2023/10/16 10:12:23;;;;;;;6.68;1.35;;;14.90;99.90;;;;;;5025110;28;20051;-73
2023/10/16 10:15:14;;;;;;;10.20;1.40;;;14.70;99.90;;;;;;5032616;28;20080;-75
2023/10/16 10:17:42;;;;;;;5.93;1.38;;;14.80;99.90;;;;;;5052531;28;20041;-73
2023/10/16 10:20:09;;;;;;;5.15;1.30;;;15.30;99.90;;;;;;5034089;28;20051;-72
2023/10/16 10:22:36;;;;;;;5.00;1.25;;;15.70;99.90;;;;;;5055079;28;20116;-76
2023/10/16 10:25:22;;;;;;;5.32;1.20;;;15.90;99.90;;;;;;5049290;28;20056;-75
2023/10/16 10:27:48;;;;;;;5.63;1.30;;;16.00;99.90;;;;;;5032636;28;20056;-78
2023/10/16 10:30:25;;;;;;;7.28;1.60;;;16.00;99.90;;;;;;5030429;28;20051;-76
2023/10/16 10:33:00;;;;;;;8.13;1.60;;;15.60;99.90;;;;;;5033463;28;20045;-79
2023/10/16 10:35:30;;;;;;;5.82;1.58;;;15.20;99.90;;;;;;5034108;28;20491;-75
2023/10/16 10:38:21;;;;;;;6.47;1.10;;;15.00;99.90;;;;;;5050288;28;20077;-76
2023/10/16 10:41:10;;;;;;;6.00;1.30;;;14.90;99.90;;;;;;5044530;28;20037;-72
2023/10/16 10:43:58;;;;;;;5.78;1.30;;;14.90;99.90;;;;;;5033713;28;20059;-75
2023/10/16 10:46:28;;;;;;;6.57;1.25;;;15.60;99.90;;;;;;5033897;28;20045;-74
2023/10/16 10:48:57;;;;;;;4.65;1.17;;;16.60;99.90;;;;;;5052416;28;20053;-78
2023/10/16 10:51:23;;;;;;;5.95;1.17;;;16.80;99.90;;;;;;5034714;28;20056;-72
2023/10/16 10:53:57;;;;;;;5.55;1.10;;;16.90;99.90;;;;;;5033747;28;20045;-72
2023/10/16 10:56:40;;;;;;;5.72;1.23;;;17.50;99.90;;;;;;5034212;28;20063;-70
2023/10/16 10:59:11;;;;;;;5.15;1.40;;;18.10;99.90;;;;;;5034296;28;20076;-75
2023/10/16 11:01:55;;;;;;;7.40;1.27;;;18.50;99.90;;;;;;5034030;28;20056;-72
2023/10/16 11:04:21;;;;;;;4.47;1.00;;;18.70;99.90;;;;;;5025157;28;20056;-72
2023/10/16 11:06:54;;;;;;;8.43;1.20;;;19.10;99.40;;;;;;5034003;28;20040;-72
2023/10/16 11:09:26;;;;;;;5.15;1.30;;;19.00;98.70;;;;;;5051454;28;20389;-72
2023/10/16 11:11:52;;;;;;;4.10;1.10;;;19.10;98.60;;;;;;5051522;28;20049;-72
2023/10/16 11:14:38;;;;;;;5.63;1.20;;;19.00;99.50;;;;;;5046384;28;20049;-72
2023/10/16 11:17:07;;;;;;;4.05;1.08;;;19.30;98.10;;;;;;5014516;28;20528;-72
2023/10/16 11:19:49;;;;;;;4.03;1.00;;;19.20;99.00;;;;;;5045449;28;20068;-75
2023/10/16 11:22:19;;;;;;;4.65;1.15;;;19.30;96.50;;;;;;5043661;28;20061;-72
2023/10/16 11:24:49;;;;;;;4.07;1.10;;;19.30;97.10;;;;;;5051762;28;20483;-73
2023/10/16 11:27:17;;;;;;;6.07;1.10;;;19.50;96.50;;;;;;5051776;28;20409;-71
2023/10/16 11:29:46;;;;;;;3.17;0.90;;;19.70;95.90;;;;;;5033744;28;20048;-71
2023/10/16 11:32:15;;;;;;;2.22;0.77;;;19.90;95.20;;;;;;5051794;28;20447;-71
2023/10/16 11:34:45;;;;;;;3.97;1.10;;;19.80;94.60;;;;;;5033913;28;20053;-71
2023/10/16 11:37:14;;;;;;;5.18;1.08;;;19.60;92.60;;;;;;5033319;28;20480;-72
2023/10/16 11:39:41;;;;;;;4.88;1.08;;;19.60;93.70;;;;;;5034221;28;20143;-71
2023/10/16 11:42:08;;;;;;;4.20;1.15;;;19.30;94.30;;;;;;5051065;28;20045;-72
2023/10/16 11:44:37;;;;;;;4.47;0.88;;;19.30;94.00;;;;;;5033487;28;20053;-71
2023/10/16 11:47:09;;;;;;;3.22;1.00;;;19.00;93.80;;;;;;5051418;28;20033;-72
2023/10/16 11:49:42;;;;;;;2.80;1.08;;;19.40;93.60;;;;;;5050051;28;20527;-74
2023/10/16 11:52:08;;;;;;;4.32;1.02;;;19.30;93.40;;;;;;5039884;28;20057;-72
2023/10/16 11:54:36;;;;;;;3.42;1.00;;;19.70;93.90;;;;;;5049635;28;20087;-71
2023/10/16 11:57:06;;;;;;;3.85;1.00;;;19.60;93.30;;;;;;5051585;28;20112;-73
2023/10/16 11:59:32;;;;;;;3.70;1.00;;;19.70;92.30;;;;;;5031134;28;20147;-73
2023/10/16 12:02:10;;;;;;;3.42;0.88;;;19.60;93.10;;;;;;5045136;28;20148;-71
2023/10/16 12:04:37;;;;;;;3.00;0.93;;;19.60;93.20;;;;;;5050091;28;20071;-71
2023/10/16 12:07:02;;;;;;;3.42;0.90;;;19.70;92.00;;;;;;5035833;28;20056;-74
2023/10/16 12:09:36;;;;;;;6.28;0.95;;;19.70;91.90;;;;;;5035658;28;20045;-72
2023/10/16 12:12:06;;;;;;;4.38;1.05;;;19.80;92.70;;;;;;5047126;28;20037;-74
2023/10/16 12:14:37;;;;;;;4.18;1.10;;;19.80;91.60;;;;;;5035708;28;20555;-73
2023/10/16 12:17:06;;;;;;;2.92;0.98;;;19.90;93.40;;;;;;5041320;28;20481;-74
2023/10/16 12:19:33;;;;;;;3.58;0.90;;;19.70;92.90;;;;;;5035345;28;20412;-73
2023/10/16 12:22:00;;;;;;;4.30;0.85;;;19.30;92.90;;;;;;5045480;28;20037;-74
2023/10/16 12:24:26;;;;;;;4.03;0.90;;;19.10;93.60;;;;;;5035924;28;20372;-74
2023/10/16 12:26:52;;;;;;;5.00;1.02;;;18.80;93.10;;;;;;5050267;28;20050;-74
2023/10/16 12:29:20;;;;;;;3.22;1.02;;;18.50;94.20;;;;;;5039018;28;20041;-74
2023/10/16 12:31:48;;;;;;;2.70;0.80;;;18.40;94.40;;;;;;5042998;28;20180;-73
2023/10/16 12:34:16;;;;;;;5.50;0.90;;;18.20;94.70;;;;;;5052611;28;20048;-73
2023/10/16 12:36:43;;;;;;;3.15;0.80;;;18.00;94.60;;;;;;5051460;28;20458;-73
2023/10/16 12:39:24;;;;;;;5.72;1.10;;;17.80;94.70;;;;;;5036735;28;20048;-73
2023/10/16 12:41:54;;;;;;;4.80;0.85;;;17.70;95.10;;;;;;5042734;28;20038;-76
2023/10/16 12:44:19;;;;;;;4.00;0.93;;;17.50;94.90;;;;;;5033606;28;20514;-74
2023/10/16 12:46:45;;;;;;;4.35;0.90;;;17.20;95.40;;;;;;5049183;28;20064;-73
2023/10/16 12:49:11;;;;;;;2.65;0.88;;;17.20;95.90;;;;;;5036749;28;20416;-73
2023/10/16 12:51:38;;;;;;;4.10;0.98;;;17.10;95.60;;;;;;5048662;28;20057;-74
2023/10/16 12:54:06;;;;;;;3.60;0.90;;;17.00;96.00;;;;;;5033474;28;20045;-74
2023/10/16 12:56:35;;;;;;;3.20;1.08;;;17.00;95.50;;;;;;5053089;28;20052;-75
2023/10/16 12:59:04;;;;;;;3.55;1.27;;;17.00;96.50;;;;;;5018108;28;20049;-76
2023/10/16 13:01:30;;;;;;;4.65;1.30;;;17.10;96.50;;;;;;5052281;28;20382;-78
2023/10/16 13:03:59;;;;;;;9.63;1.60;;;17.00;96.70;;;;;;5040766;28;20584;-75
2023/10/16 13:06:28;;;;;;;2.83;1.08;;;17.00;97.20;;;;;;5033917;28;20045;-75
2023/10/16 13:08:55;;;;;;;4.30;1.20;;;17.00;97.80;;;;;;5041861;28;20078;-78
2023/10/16 13:11:21;;;;;;;5.93;1.00;;;16.80;97.50;;;;;;5034764;28;20077;-82
2023/10/16 13:13:47;;;;;;;4.72;0.95;;;16.60;97.90;;;;;;5034420;28;20080;-76
2023/10/16 13:16:24;;;;;;;4.03;1.10;;;16.60;98.20;;;;;;5034630;28;20139;-78
2023/10/16 13:18:57;;;;;;;9.27;1.20;;;16.50;98.10;;;;;;5033670;28;20052;-81
2023/10/16 13:21:41;;;;;;;4.90;1.10;;;16.40;98.20;;;;;;5034249;28;20052;-83
2023/10/16 13:24:13;;;;;;;4.53;1.05;;;16.30;98.50;;;;;;5034342;28;20191;-87
2023/10/16 13:26:40;;;;;;;3.53;1.02;;;16.20;99.00;;;;;;5035635;28;20044;-79
2023/10/16 13:29:08;;;;;;;4.45;1.17;;;16.00;99.00;;;;;;5045763;28;20402;-78
2023/10/16 13:31:37;;;;;;;5.13;1.02;;;16.60;99.20;;;;;;5051471;28;20043;-77
2023/10/16 13:34:04;;;;;;;5.13;1.02;;;15.90;99.90;;;;;;5043226;28;20534;-74
2023/10/16 13:36:35;;;;;;;5.55;1.45;;;15.70;99.70;;;;;;5034368;28;20492;-73
2023/10/16 13:39:07;;;;;;;3.40;0.95;;;15.70;99.90;;;;;;5028021;28;20045;-72
2023/10/16 13:41:34;;;;;;;4.50;1.30;;;15.50;99.90;;;;;;5033882;28;20179;-78
2023/10/16 13:46:35;;;;;;;3.93;1.40;;;15.40;99.90;;;;;;5260006;22;20550;-81
2023/10/16 13:49:01;;;;;;;6.68;1.23;;;15.30;99.90;;;;;;5079071;28;20040;-81
2023/10/16 13:51:27;;;;;;;5.60;1.27;;;15.20;99.90;;;;;;5085333;28;20071;-83
2023/10/16 13:53:57;;;;;;;4.65;1.00;;;15.30;99.90;;;;;;5070189;28;20544;-80
2023/10/16 13:56:24;;;;;;;4.47;0.90;;;15.10;99.90;;;;;;5068865;28;20053;-79
2023/10/16 13:58:50;;;;;;;5.18;1.20;;;15.00;99.90;;;;;;5072399;28;20435;-79
2023/10/16 14:01:15;;;;;;;7.03;1.40;;;14.90;99.90;;;;;;5089820;28;20487;-79
2023/10/16 14:03:42;;;;;;;4.10;1.10;;;14.90;99.90;;;;;;5079289;28;20055;-82
2023/10/16 14:06:12;;;;;;;5.78;1.20;;;14.90;99.90;;;;;;5083758;28;20123;-72
2023/10/16 14:08:41;;;;;;;4.35;1.30;;;14.90;99.90;;;;;;5085783;28;20043;-75
2023/10/16 14:11:11;;;;;;;6.63;1.42;;;14.90;99.90;;;;;;5080300;28;20355;-75
2023/10/16 14:13:40;;;;;;;6.13;1.67;;;14.90;99.90;;;;;;5080544;28;20102;-74
2023/10/16 14:16:17;;;;;;;7.57;1.05;;;14.80;99.90;;;;;;5074905;28;20073;-75
2023/10/16 14:18:44;;;;;;;6.05;1.55;;;14.80;99.90;;;;;;5081129;28;20045;-86
2023/10/16 14:21:11;;;;;;;7.35;1.50;;;14.80;99.90;;;;;;5088854;28;20052;-80
2023/10/16 14:23:42;;;;;;;4.00;1.10;;;14.70;99.90;;;;;;5079462;28;20093;-76
2023/10/16 14:26:11;;;;;;;4.53;1.38;;;14.60;99.90;;;;;;5086917;28;20519;-73
2023/10/16 14:28:44;;;;;;;4.03;1.40;;;14.50;99.90;;;;;;5086175;28;20076;-74
2023/10/16 14:31:12;;;;;;;4.38;1.20;;;14.40;99.90;;;;;;5087978;28;20499;-75
2023/10/16 14:33:37;;;;;;;3.83;1.20;;;14.30;99.90;;;;;;5084269;28;20488;-74
2023/10/16 14:36:09;;;;;;;3.65;0.80;;;14.20;99.90;;;;;;5070982;28;20131;-74
2023/10/16 14:38:37;;;;;;;5.53;1.27;;;14.00;99.90;;;;;;5075352;28;20089;-73
2023/10/16 14:41:09;;;;;;;6.43;1.13;;;13.90;99.90;;;;;;5083837;28;20097;-74
2023/10/16 14:43:40;;;;;;;5.03;1.40;;;13.90;99.90;;;;;;5085021;28;20456;-74
2023/10/16 14:46:10;;;;;;;5.93;1.20;;;13.80;99.90;;;;;;5082396;28;20060;-73
2023/10/16 14:48:42;;;;;;;5.15;1.10;;;13.80;99.90;;;;;;5077049;28;20052;-76
2023/10/16 14:51:13;;;;;;;8.93;1.38;;;13.70;99.90;;;;;;5083609;28;20452;-75
2023/10/16 14:53:44;;;;;;;4.55;1.20;;;13.70;99.90;;;;;;5075455;28;20054;-74
2023/10/16 14:56:18;;;;;;;6.55;1.13;;;13.60;99.90;;;;;;5086964;28;20052;-72
2023/10/16 14:58:50;;;;;;;4.68;1.33;;;13.60;99.90;;;;;;5087423;28;20098;-77
2023/10/16 15:01:15;;;;;;;8.32;1.50;;;13.50;99.90;;;;;;5078071;28;20060;-77
2023/10/16 15:03:51;;;;;;;5.63;1.10;;;13.70;99.90;;;;;;5083703;28;20043;-78
2023/10/16 15:06:18;;;;;;;7.97;1.30;;;13.50;99.90;;;;;;5083812;28;20048;-78
2023/10/16 15:08:44;;;;;;;4.80;1.50;;;13.40;99.90;;;;;;5072543;28;20049;-78
2023/10/16 15:11:10;;;;;;;7.07;1.17;;;13.40;99.90;;;;;;5085547;28;20136;-78
2023/10/16 15:13:37;;;;;;;9.45;1.65;;;13.30;99.90;;;;;;5077484;28;20546;-75